Terminal Aerodrome Forecast
Issued by NWS

Home | Current Version | Previous Version | Text Only | Print | Product List | Glossary Off
Versions: 1 2 3 4 5 6 7 8 9 10 11 12 13

000
FTUS41 KCLE 090500
TAFFDY
TAF
KFDY 090532Z 0906/1006 23005KT P6SM BKN070
     FM090900 25005KT 3SM BR SCT025
     FM091400 30010KT P6SM BKN035
     FM092100 32008KT P6SM SCT035=

USA.gov is the U.S. government's official web portal to all federal, state and local government web resources and services.